Time;durP1;ratioP1;P1;durP2;ratioP2;P2;SDS_P1;SDS_P2;PMS_P1;PMS_P2;Temp;Humidity;BMP_temperature;BMP_pressure;BME280_temperature;BME280_humidity;BME280_pressure;Samples;Min_cycle;Max_cycle;Signal;HPM_P1;HPM_P2
2021/08/31 00:00:59;;;;;;;20.38;17.67;;;;;;;15.37;83.14;100212.50;5019648;28;20044;-68
2021/08/31 00:03:24;;;;;;;22.10;17.58;;;;;;;15.35;83.42;100214.41;5064298;28;20037;-74
2021/08/31 00:05:49;;;;;;;24.30;18.40;;;;;;;15.37;83.32;100217.81;5069718;28;20029;-73
2021/08/31 00:08:15;;;;;;;20.75;17.33;;;;;;;15.40;83.15;100213.16;5066675;28;20047;-72
2021/08/31 00:10:40;;;;;;;23.90;18.17;;;;;;;15.42;83.09;100213.91;5060380;28;20055;-72
2021/08/31 00:13:06;;;;;;;17.95;15.88;;;;;;;15.42;83.65;100213.91;5067613;28;20036;-72
2021/08/31 00:15:32;;;;;;;21.30;16.80;;;;;;;15.40;83.32;100207.00;5070433;28;20032;-72
2021/08/31 00:18:00;;;;;;;26.10;18.42;;;;;;;15.39;83.71;100213.25;5070199;28;20517;-71
2021/08/31 00:20:26;;;;;;;27.70;21.23;;;;;;;15.35;83.19;100219.72;5070357;28;20587;-72
2021/08/31 00:22:52;;;;;;;21.75;18.63;;;;;;;15.34;83.28;100221.50;5051605;28;20120;-72
2021/08/31 00:25:17;;;;;;;23.58;17.85;;;;;;;15.31;83.40;100224.38;5087594;28;20119;-70
2021/08/31 00:27:43;;;;;;;31.15;23.02;;;;;;;15.25;82.98;100225.56;5090601;28;20115;-72
2021/08/31 00:30:09;;;;;;;22.00;17.48;;;;;;;15.21;83.52;100226.75;5090496;28;20546;-71
2021/08/31 00:32:34;;;;;;;22.30;16.13;;;;;;;15.15;83.54;100229.75;5089443;28;20047;-71
2021/08/31 00:34:59;;;;;;;22.15;17.55;;;;;;;15.11;83.58;100233.56;5090409;28;20131;-71
2021/08/31 00:37:25;;;;;;;30.80;20.95;;;;;;;15.03;83.45;100230.50;5090084;28;20031;-71
2021/08/31 00:39:50;;;;;;;29.08;22.73;;;;;;;14.99;83.83;100231.66;5088665;28;20036;-70
2021/08/31 00:42:16;;;;;;;21.98;18.10;;;;;;;14.95;83.99;100222.16;5088960;28;20085;-71
2021/08/31 00:44:41;;;;;;;32.42;23.00;;;;;;;14.94;83.84;100225.75;5092718;28;20113;-70
2021/08/31 00:47:06;;;;;;;25.95;20.67;;;;;;;14.90;83.71;100229.53;5090934;28;20036;-71
2021/08/31 00:49:32;;;;;;;22.50;18.15;;;;;;;14.81;83.57;100222.97;5090488;28;20493;-70
2021/08/31 00:51:59;;;;;;;37.72;24.77;;;;;;;14.77;83.57;100232.94;5089332;28;20043;-70
2021/08/31 00:54:29;;;;;;;22.98;13.77;;;;;;;14.77;84.15;100232.94;5090274;28;20032;-70
2021/08/31 00:56:57;;;;;;;25.55;18.58;;;;;;;14.80;83.93;100238.06;5089992;28;20050;-71
2021/08/31 00:59:23;;;;;;;21.50;17.13;;;;;;;14.81;84.14;100233.59;5090060;28;20036;-71
2021/08/31 01:01:55;;;;;;;20.65;18.15;;;;;;;14.77;83.56;100234.75;5062756;28;20124;-70
2021/08/31 01:04:24;;;;;;;17.80;15.90;;;;;;;14.72;84.16;100228.84;5089800;28;20071;-70
2021/08/31 01:06:50;;;;;;;23.55;17.88;;;;;;;14.71;83.49;100233.28;5089378;28;20032;-71
2021/08/31 01:09:16;;;;;;;30.50;24.50;;;;;;;14.67;83.14;100234.44;5089953;28;20111;-71
2021/08/31 01:11:41;;;;;;;21.65;16.42;;;;;;;14.63;84.00;100238.19;5088924;28;20119;-70
2021/08/31 01:14:07;;;;;;;22.33;19.60;;;;;;;14.64;84.40;100236.38;5089141;28;20122;-71
2021/08/31 01:16:33;;;;;;;20.60;16.15;;;;;;;14.61;84.18;100237.44;5089536;28;20392;-71
2021/08/31 01:18:58;;;;;;;25.45;19.15;;;;;;;14.59;84.07;100239.31;5089545;28;20040;-70
2021/08/31 01:21:24;;;;;;;25.73;20.10;;;;;;;14.54;83.79;100236.91;5088639;28;20048;-70
2021/08/31 01:23:50;;;;;;;30.80;23.55;;;;;;;14.50;84.44;100237.19;5089952;28;20557;-70
2021/08/31 01:26:16;;;;;;;26.15;20.08;;;;;;;14.47;83.72;100242.66;5089541;28;20522;-70
2021/08/31 01:28:41;;;;;;;29.02;21.15;;;;;;;14.42;84.08;100239.41;5088243;28;20059;-70
2021/08/31 01:31:07;;;;;;;22.60;19.08;;;;;;;14.38;84.69;100236.94;5088747;28;20835;-70
2021/08/31 01:33:33;;;;;;;34.25;23.48;;;;;;;14.41;84.36;100241.22;5089680;28;20039;-70
2021/08/31 01:36:20;;;;;;;27.75;21.10;;;;;;;14.39;84.07;100238.63;5089846;28;20063;-70
2021/08/31 01:38:50;;;;;;;24.63;18.30;;;;;;;14.40;84.41;100242.16;5089215;28;20119;-71
2021/08/31 01:41:16;;;;;;;24.75;18.60;;;;;;;14.35;84.04;100250.38;5087611;28;20457;-71
2021/08/31 01:43:41;;;;;;;27.60;21.05;;;;;;;14.34;84.18;100248.66;5089421;28;20119;-71
2021/08/31 01:46:07;;;;;;;26.05;17.80;;;;;;;14.34;84.07;100253.97;5087627;28;20624;-70
2021/08/31 01:48:32;;;;;;;25.30;18.33;;;;;;;14.35;84.19;100261.00;5089691;28;20032;-69
2021/08/31 01:50:58;;;;;;;21.25;18.02;;;;;;;14.36;83.83;100265.34;5089004;28;20126;-71
2021/08/31 01:53:23;;;;;;;21.88;17.33;;;;;;;14.37;84.40;100256.47;5088933;28;20032;-71
2021/08/31 01:55:48;;;;;;;17.88;15.15;;;;;;;14.45;84.53;100256.03;5084283;28;20058;-70
2021/08/31 01:58:14;;;;;;;21.95;16.60;;;;;;;14.52;84.27;100257.38;5089566;28;20036;-69
2021/08/31 02:00:39;;;;;;;22.10;17.70;;;;;;;14.60;84.30;100259.59;5089756;28;20024;-72
2021/08/31 02:03:04;;;;;;;27.40;21.33;;;;;;;14.68;84.48;100260.00;5088744;28;20032;-71
2021/08/31 02:05:30;;;;;;;31.35;24.02;;;;;;;14.71;84.22;100259.81;5089001;28;20107;-69
2021/08/31 02:07:56;;;;;;;38.03;28.45;;;;;;;14.73;83.89;100263.25;5089104;28;20067;-72
2021/08/31 02:10:22;;;;;;;33.38;25.67;;;;;;;14.75;83.78;100268.47;5089554;28;20040;-72
2021/08/31 02:12:48;;;;;;;39.42;28.88;;;;;;;14.76;83.95;100270.16;5066652;28;20047;-72
2021/08/31 02:15:14;;;;;;;36.60;26.20;;;;;;;14.78;83.74;100268.28;5062068;28;20567;-72
2021/08/31 02:17:39;;;;;;;39.08;28.48;;;;;;;14.77;83.60;100266.59;5068818;28;20037;-72
2021/08/31 02:20:06;;;;;;;36.88;27.30;;;;;;;14.76;83.80;100275.47;5067193;28;20075;-71
2021/08/31 02:22:32;;;;;;;40.78;29.10;;;;;;;14.77;83.53;100272.75;5066110;28;20036;-71
2021/08/31 02:24:57;;;;;;;41.33;31.60;;;;;;;14.77;83.11;100274.56;5069930;28;20447;-71
2021/08/31 02:27:22;;;;;;;33.92;27.30;;;;;;;14.77;83.63;100280.72;5071579;28;20040;-71
2021/08/31 02:29:48;;;;;;;36.80;30.58;;;;;;;14.74;83.44;100278.25;5077005;28;20043;-71
2021/08/31 02:32:13;;;;;;;35.22;26.73;;;;;;;14.74;83.85;100277.38;5071957;28;20040;-71
2021/08/31 02:34:38;;;;;;;40.97;30.48;;;;;;;14.73;83.86;100271.22;5071777;28;20409;-72
2021/08/31 02:37:04;;;;;;;39.40;31.60;;;;;;;14.74;83.94;100275.59;5072242;28;20041;-72
2021/08/31 02:39:29;;;;;;;39.97;30.80;;;;;;;14.72;83.84;100271.31;5070924;28;20052;-72
2021/08/31 02:41:55;;;;;;;43.45;31.15;;;;;;;14.70;84.00;100273.19;5069315;28;20072;-70
2021/08/31 02:44:20;;;;;;;40.97;31.48;;;;;;;14.72;83.98;100271.31;5070316;28;20493;-71
2021/08/31 02:46:45;;;;;;;42.30;33.55;;;;;;;14.68;83.62;100273.28;5070071;28;20489;-71
2021/08/31 02:49:11;;;;;;;48.55;34.28;;;;;;;14.60;84.34;100272.88;5068945;28;20050;-72
2021/08/31 02:51:36;;;;;;;40.58;30.85;;;;;;;14.58;84.84;100280.06;5066927;28;20032;-71
2021/08/31 02:54:01;;;;;;;53.92;37.05;;;;;;;14.63;84.63;100282.47;5071180;28;20493;-70
2021/08/31 02:56:27;;;;;;;35.38;29.08;;;;;;;14.66;84.81;100283.13;5071057;28;20040;-70
2021/08/31 02:58:52;;;;;;;39.88;32.42;;;;;;;14.68;84.34;100285.69;5072628;28;20036;-70
2021/08/31 03:03:57;;;;;;;56.13;39.72;;;;;;;14.57;84.23;100275.69;5075070;28;20037;-70
2021/08/31 03:06:26;;;;;;;52.38;36.75;;;;;;;14.50;84.98;100274.31;5072417;28;20032;-70
2021/08/31 03:08:52;;;;;;;46.80;34.10;;;;;;;14.49;84.94;100277.91;5081836;28;20032;-71
2021/08/31 03:11:18;;;;;;;54.20;38.13;;;;;;;14.52;84.80;100290.97;5072253;28;20465;-71
2021/08/31 03:13:44;;;;;;;50.38;34.97;;;;;;;14.53;84.50;100285.63;5075281;28;20066;-71
2021/08/31 03:16:09;;;;;;;53.35;37.22;;;;;;;14.53;84.82;100282.97;5079828;28;20036;-70
2021/08/31 03:18:34;;;;;;;49.30;34.38;;;;;;;14.58;84.79;100280.06;5077812;28;20408;-71
2021/08/31 03:21:00;;;;;;;85.75;50.38;;;;;;;14.49;84.67;100286.72;5071717;28;20045;-70
2021/08/31 03:23:25;;;;;;;76.85;44.15;;;;;;;14.39;85.55;100280.22;5071539;28;20101;-71
2021/08/31 03:25:51;;;;;;;88.90;49.55;;;;;;;14.38;85.78;100283.84;5072418;28;20037;-71
2021/08/31 03:28:16;;;;;;;94.35;49.72;;;;;;;14.38;85.33;100287.34;5071764;28;20447;-70
2021/08/31 03:30:41;;;;;;;88.65;48.25;;;;;;;14.34;86.34;100283.13;5071592;28;20789;-73
2021/08/31 03:33:07;;;;;;;60.22;39.95;;;;;;;14.39;85.93;100285.53;5070896;28;20043;-70
2021/08/31 03:35:32;;;;;;;63.65;41.92;;;;;;;14.41;85.46;100280.16;5072024;28;20036;-70
2021/08/31 03:37:57;;;;;;;54.00;36.63;;;;;;;14.44;85.85;100288.78;5073431;28;20036;-71
2021/08/31 03:40:23;;;;;;;55.83;37.33;;;;;;;14.47;85.58;100293.06;5071787;28;20044;-71
2021/08/31 03:42:48;;;;;;;61.42;40.50;;;;;;;14.51;85.32;100294.59;5071005;28;20058;-71
2021/08/31 03:45:15;;;;;;;55.67;38.97;;;;;;;14.53;85.15;100296.25;5071520;28;20040;-70
2021/08/31 03:47:40;;;;;;;60.05;39.38;;;;;;;14.57;85.53;100300.44;5071523;28;20060;-71
2021/08/31 03:50:07;;;;;;;66.15;43.60;;;;;;;14.57;85.32;100304.88;5070567;28;20048;-70
2021/08/31 03:52:32;;;;;;;72.65;41.13;;;;;;;14.55;85.46;100299.69;5070318;28;20771;-71
2021/08/31 03:54:57;;;;;;;58.78;37.55;;;;;;;14.62;85.32;100310.81;5071033;28;20066;-70
2021/08/31 03:57:22;;;;;;;86.20;47.03;;;;;;;14.63;85.05;100298.38;5071313;28;20039;-70
2021/08/31 03:59:48;;;;;;;71.88;45.03;;;;;;;14.60;85.03;100313.53;5071204;28;20485;-70
2021/08/31 04:02:14;;;;;;;76.13;44.45;;;;;;;14.63;84.99;100314.31;5070663;28;20046;-71
2021/08/31 04:04:40;;;;;;;82.10;45.20;;;;;;;14.67;84.92;100313.16;5069256;28;20036;-71
2021/08/31 04:07:05;;;;;;;74.22;44.22;;;;;;;14.69;84.83;100306.81;5070895;28;20124;-71
2021/08/31 04:09:30;;;;;;;74.20;43.80;;;;;;;14.70;84.51;100311.19;5071439;28;20127;-71
2021/08/31 04:11:56;;;;;;;81.50;48.13;;;;;;;14.72;84.47;100313.78;5068663;28;20037;-71
2021/08/31 04:14:21;;;;;;;77.15;47.55;;;;;;;14.73;84.74;100305.72;5071067;28;20038;-70
2021/08/31 04:16:46;;;;;;;74.10;44.67;;;;;;;14.75;84.37;100308.28;5069373;28;20041;-72
2021/08/31 04:19:12;;;;;;;85.93;45.85;;;;;;;14.76;84.42;100317.94;5069909;28;20033;-71
2021/08/31 04:21:37;;;;;;;102.60;57.45;;;;;;;14.65;84.48;100329.19;5070224;28;20040;-73
2021/08/31 04:24:03;;;;;;;94.07;51.70;;;;;;;14.61;85.04;100330.31;5071215;28;20032;-73
2021/08/31 04:26:30;;;;;;;93.07;51.10;;;;;;;14.58;85.37;100323.38;5070545;28;20029;-71
2021/08/31 04:28:55;;;;;;;102.57;52.15;;;;;;;14.61;85.27;100332.94;5069907;28;20040;-72
2021/08/31 04:31:22;;;;;;;97.70;52.60;;;;;;;14.62;85.26;100336.47;5069155;28;20066;-72
2021/08/31 04:33:48;;;;;;;104.65;53.13;;;;;;;14.63;85.17;100333.72;5070635;28;20404;-71
2021/08/31 04:36:13;;;;;;;83.97;46.15;;;;;;;14.64;85.47;100338.06;5070320;28;20119;-72
2021/08/31 04:38:39;;;;;;;84.75;46.05;;;;;;;14.66;85.25;100341.50;5070276;28;20055;-72
2021/08/31 04:41:04;;;;;;;172.52;69.18;;;;;;;14.63;84.92;100339.03;5069629;28;20029;-72
2021/08/31 04:43:29;;;;;;;89.57;48.33;;;;;;;14.58;85.66;100341.94;5068643;28;20133;-71
2021/08/31 04:45:55;;;;;;;101.18;51.90;;;;;;;14.62;86.00;100353.25;5070106;28;20044;-71
2021/08/31 04:48:20;;;;;;;88.38;50.58;;;;;;;14.64;85.45;100351.34;5068401;28;20127;-70
2021/08/31 04:50:45;;;;;;;108.50;55.80;;;;;;;14.64;85.33;100351.34;5069915;28;20044;-70
2021/08/31 04:53:11;;;;;;;114.43;59.42;;;;;;;14.63;84.89;100356.75;5069191;28;20101;-70
2021/08/31 04:55:36;;;;;;;90.30;47.47;;;;;;;14.63;85.21;100349.66;5069908;28;20453;-70
2021/08/31 04:58:02;;;;;;;95.40;52.78;;;;;;;14.62;85.29;100358.56;5070638;28;20413;-71
2021/08/31 05:00:27;;;;;;;94.82;49.58;;;;;;;14.65;85.33;100357.53;5069975;28;20028;-71
2021/08/31 05:02:55;;;;;;;123.85;58.42;;;;;;;14.69;84.89;100359.06;5069926;28;20730;-72
2021/08/31 05:05:21;;;;;;;160.25;64.68;;;;;;;14.67;84.75;100368.88;5073392;28;20056;-71
2021/08/31 05:07:47;;;;;;;107.75;56.30;;;;;;;14.64;85.35;100372.56;5070173;28;20406;-71
2021/08/31 05:10:12;;;;;;;105.65;53.95;;;;;;;14.66;85.06;100380.47;5068145;28;20043;-70
2021/08/31 05:12:37;;;;;;;136.57;64.55;;;;;;;14.63;85.42;100386.81;5067424;28;20045;-71
2021/08/31 05:15:03;;;;;;;115.97;55.95;;;;;;;14.60;85.57;100379.03;5068903;28;20544;-71
2021/08/31 05:17:29;;;;;;;157.77;64.40;;;;;;;14.61;85.45;100378.06;5069094;28;20059;-71
2021/08/31 05:19:54;;;;;;;131.68;57.92;;;;;;;14.64;86.16;100374.38;5069376;28;20044;-71
2021/08/31 05:22:19;;;;;;;113.57;58.83;;;;;;;14.65;85.98;100368.16;5071320;28;20025;-71
2021/08/31 05:24:46;;;;;;;129.25;60.83;;;;;;;14.65;85.52;100374.31;5069149;28;20484;-72
2021/08/31 05:27:11;;;;;;;117.72;54.85;;;;;;;14.68;85.94;100379.44;5068962;28;20421;-72
2021/08/31 05:29:38;;;;;;;83.00;47.72;;;;;;;14.74;85.89;100371.13;5068052;28;20028;-72
2021/08/31 05:32:03;;;;;;;82.97;47.53;;;;;;;14.76;85.37;100371.88;5068469;28;20033;-72
2021/08/31 05:34:29;;;;;;;119.20;54.70;;;;;;;14.78;85.22;100374.47;5069013;28;20035;-72
2021/08/31 05:36:54;;;;;;;172.90;66.05;;;;;;;14.75;84.98;100377.28;5068217;28;20036;-71
2021/08/31 05:39:19;;;;;;;126.32;56.30;;;;;;;14.73;85.15;100390.63;5073121;28;20025;-72
2021/08/31 05:41:45;;;;;;;105.82;51.30;;;;;;;14.73;85.67;100387.13;5066575;28;20055;-72
2021/08/31 05:44:10;;;;;;;105.88;50.45;;;;;;;14.71;85.02;100389.88;5069604;28;20036;-72
2021/08/31 05:46:35;;;;;;;94.43;46.08;;;;;;;14.73;84.89;100393.28;5068736;28;20497;-70
2021/08/31 05:49:01;;;;;;;100.35;47.55;;;;;;;14.73;84.62;100398.59;5067671;28;20062;-71
2021/08/31 05:51:27;;;;;;;119.40;52.45;;;;;;;14.71;84.66;100400.47;5068053;28;20040;-72
2021/08/31 05:53:54;;;;;;;97.57;50.40;;;;;;;14.72;85.23;100399.56;5069416;28;20037;-70
2021/08/31 05:56:19;;;;;;;87.72;43.60;;;;;;;14.72;84.71;100401.38;5068772;28;20039;-71
2021/08/31 05:58:44;;;;;;;88.55;47.08;;;;;;;14.72;84.33;100412.81;5066671;28;20393;-72
2021/08/31 06:01:10;;;;;;;101.18;49.60;;;;;;;14.72;84.93;100410.19;5067666;28;20508;-72
2021/08/31 06:03:35;;;;;;;86.05;42.03;;;;;;;14.74;85.01;100402.09;5068592;28;20036;-71
2021/08/31 06:06:00;;;;;;;88.30;44.95;;;;;;;14.74;84.67;100400.34;5069063;28;20055;-71
2021/08/31 06:08:28;;;;;;;93.65;44.40;;;;;;;14.73;84.93;100409.22;5068949;28;20039;-72
2021/08/31 06:10:53;;;;;;;84.07;42.20;;;;;;;14.73;84.67;100413.69;5065586;28;20063;-69
2021/08/31 06:13:19;;;;;;;85.20;44.00;;;;;;;14.70;84.88;100408.56;5057848;28;20390;-70
2021/08/31 06:15:44;;;;;;;92.15;45.40;;;;;;;14.71;85.18;100419.06;5060041;28;20075;-71
2021/08/31 06:18:09;;;;;;;81.28;41.97;;;;;;;14.74;84.68;100420.69;5059547;28;20033;-70
2021/08/31 06:20:35;;;;;;;72.00;40.58;;;;;;;14.73;84.23;100413.69;5060185;28;20166;-71
2021/08/31 06:23:00;;;;;;;60.45;35.83;;;;;;;14.74;84.07;100421.56;5051227;28;20024;-70
2021/08/31 06:25:26;;;;;;;144.35;52.10;;;;;;;14.74;84.20;100424.22;5088106;28;20039;-71
2021/08/31 06:27:51;;;;;;;94.03;44.08;;;;;;;14.73;83.72;100419.84;5067463;28;20517;-70
2021/08/31 06:30:16;;;;;;;87.20;42.25;;;;;;;14.74;83.46;100416.25;5092084;28;20028;-71
2021/08/31 06:32:42;;;;;;;62.78;37.13;;;;;;;14.83;83.40;100430.78;5091466;27;20041;-71
2021/08/31 06:35:07;;;;;;;68.57;39.75;;;;;;;14.91;83.44;100430.34;5092760;28;20056;-71
2021/08/31 06:37:33;;;;;;;66.45;36.83;;;;;;;14.93;82.46;100429.31;5093025;28;20029;-69
2021/08/31 06:39:58;;;;;;;69.80;39.25;;;;;;;14.96;82.64;100429.16;5093027;28;20036;-70
2021/08/31 06:42:23;;;;;;;74.07;42.95;;;;;;;14.96;82.11;100429.16;5090753;28;20400;-70
2021/08/31 06:44:49;;;;;;;69.00;40.20;;;;;;;14.95;82.46;100435.41;5088372;28;20404;-70
2021/08/31 06:47:14;;;;;;;68.80;41.15;;;;;;;14.95;82.25;100439.88;5090848;28;20082;-70
2021/08/31 06:49:40;;;;;;;65.93;39.30;;;;;;;14.94;82.39;100436.38;5090720;28;20078;-70
2021/08/31 06:52:05;;;;;;;76.72;44.47;;;;;;;14.99;82.45;100436.94;5088373;28;20040;-70
2021/08/31 06:54:31;;;;;;;70.55;40.83;;;;;;;15.03;81.99;100441.13;5092253;28;20073;-70
2021/08/31 06:56:57;;;;;;;63.88;36.10;;;;;;;15.09;81.63;100436.41;5083704;28;20661;-71
2021/08/31 06:59:23;;;;;;;61.67;35.50;;;;;;;15.18;81.53;100444.69;5076106;28;20048;-72
2021/08/31 07:01:48;;;;;;;62.75;36.65;;;;;;;15.18;80.58;100430.56;5094392;28;20119;-73
2021/08/31 07:04:13;;;;;;;69.85;38.25;;;;;;;15.14;80.97;100443.19;5087055;28;20117;-73
2021/08/31 07:06:39;;;;;;;61.97;38.17;;;;;;;15.12;81.46;100442.41;5085518;28;20139;-74
2021/08/31 07:09:05;;;;;;;65.00;39.15;;;;;;;15.09;81.14;100453.22;5087109;28;20359;-73
2021/08/31 07:11:33;;;;;;;72.05;38.97;;;;;;;15.08;81.16;100450.63;5086825;28;20548;-73
2021/08/31 07:13:58;;;;;;;57.40;34.08;;;;;;;15.10;80.73;100449.59;5091875;28;20066;-73
2021/08/31 07:16:23;;;;;;;55.47;37.00;;;;;;;15.09;79.91;100452.34;5104415;27;20051;-73
2021/08/31 07:18:49;;;;;;;49.50;34.13;;;;;;;15.12;80.24;100454.84;5096077;28;20897;-72
2021/08/31 07:21:14;;;;;;;52.30;35.63;;;;;;;15.20;79.44;100455.25;5089898;28;20638;-72
2021/08/31 07:23:40;;;;;;;50.50;35.05;;;;;;;15.24;79.68;100462.94;5087747;28;20039;-73
2021/08/31 07:26:05;;;;;;;52.88;35.70;;;;;;;15.28;79.42;100462.75;5087241;28;20062;-73
2021/08/31 07:28:31;;;;;;;50.63;32.70;;;;;;;15.31;78.92;100457.25;5089159;28;20074;-71
2021/08/31 07:30:56;;;;;;;47.15;32.03;;;;;;;15.36;78.92;100463.19;5086625;28;20040;-76
2021/08/31 07:33:22;;;;;;;43.00;29.08;;;;;;;15.37;79.21;100459.59;5085850;28;20036;-73
2021/08/31 07:35:47;;;;;;;40.53;28.48;;;;;;;15.40;78.69;100464.72;5086542;28;20039;-72
2021/08/31 07:38:12;;;;;;;47.67;29.95;;;;;;;15.43;78.59;100462.75;5085635;28;20065;-72
2021/08/31 07:40:38;;;;;;;47.75;30.77;;;;;;;15.43;78.48;100467.19;5085522;28;20109;-73
2021/08/31 07:43:03;;;;;;;42.55;28.88;;;;;;;15.49;78.23;100468.63;5084711;28;20047;-73
2021/08/31 07:45:29;;;;;;;42.03;28.15;;;;;;;15.49;78.49;100469.50;5084872;28;20036;-72
2021/08/31 07:47:54;;;;;;;38.70;28.10;;;;;;;15.53;78.31;100472.81;5086504;28;20032;-73
2021/08/31 07:50:20;;;;;;;45.45;27.85;;;;;;;15.54;78.11;100474.53;5085856;28;20075;-73
2021/08/31 07:52:47;;;;;;;43.13;32.72;;;;;;;15.52;77.87;100482.59;5085330;28;20036;-73
2021/08/31 07:55:13;;;;;;;48.47;32.20;;;;;;;15.52;77.68;100477.28;5084438;28;20082;-73
2021/08/31 07:57:39;;;;;;;53.55;32.88;;;;;;;15.46;77.44;100493.59;5087194;28;20051;-72
2021/08/31 08:00:07;;;;;;;52.60;33.28;;;;;;;15.42;76.92;100489.41;5086368;28;20273;-72
2021/08/31 08:02:34;;;;;;;54.03;30.88;;;;;;;15.42;77.10;100494.72;5085658;28;20032;-70
2021/08/31 08:05:01;;;;;;;40.67;29.75;;;;;;;15.36;76.70;100497.75;5086058;28;20138;-71
2021/08/31 08:07:27;;;;;;;38.15;27.58;;;;;;;15.37;77.20;100499.44;5088113;28;20032;-72
2021/08/31 08:09:53;;;;;;;57.72;37.83;;;;;;;15.32;77.47;100498.84;5086401;28;20040;-72
2021/08/31 08:12:19;;;;;;;50.22;34.20;;;;;;;15.29;77.77;100502.53;5091398;28;20036;-72
2021/08/31 08:14:44;;;;;;;52.30;35.90;;;;;;;15.27;78.49;100508.88;5090381;28;20068;-71
2021/08/31 08:17:10;;;;;;;54.80;37.15;;;;;;;15.27;78.08;100512.38;5088467;28;20097;-71
2021/08/31 08:19:35;;;;;;;51.13;36.08;;;;;;;15.26;78.33;100513.34;5087493;28;20032;-73
2021/08/31 08:22:00;;;;;;;54.40;32.88;;;;;;;15.28;77.67;100519.41;5066849;28;20439;-73
2021/08/31 08:24:26;;;;;;;49.60;34.50;;;;;;;15.34;77.25;100512.91;5086201;28;20625;-72
2021/08/31 08:26:52;;;;;;;49.83;35.33;;;;;;;15.27;77.58;100516.84;5084902;28;20112;-72
2021/08/31 08:29:18;;;;;;;52.58;35.03;;;;;;;15.29;77.89;100512.31;5083502;28;20047;-70
2021/08/31 08:31:45;;;;;;;60.30;37.55;;;;;;;15.39;77.56;100511.69;5084542;28;20767;-72
2021/08/31 08:34:11;;;;;;;51.60;35.67;;;;;;;15.42;77.30;100514.16;5085334;28;20036;-71
2021/08/31 08:36:36;;;;;;;48.20;33.67;;;;;;;15.43;77.49;100509.69;5085558;28;20032;-71
2021/08/31 08:39:02;;;;;;;53.28;37.20;;;;;;;15.46;77.21;100510.38;5084774;28;20708;-70
2021/08/31 08:41:28;;;;;;;46.58;33.20;;;;;;;15.56;77.04;100510.72;5083946;28;20200;-71
2021/08/31 08:43:58;;;;;;;55.05;35.92;;;;;;;15.64;76.94;100512.91;5084808;28;20047;-70
2021/08/31 08:46:24;;;;;;;43.72;32.25;;;;;;;15.62;77.23;100509.50;5084761;28;20039;-71
2021/08/31 08:48:50;;;;;;;53.15;35.20;;;;;;;15.63;76.69;100509.41;5084920;28;20515;-71
2021/08/31 08:51:15;;;;;;;43.78;29.52;;;;;;;15.61;77.20;100513.94;5083367;28;20040;-71
2021/08/31 08:53:41;;;;;;;40.05;28.85;;;;;;;15.65;76.87;100520.81;5102304;27;20070;-72
2021/08/31 08:56:06;;;;;;;42.88;32.70;;;;;;;15.61;77.11;100524.59;5111894;27;20035;-72
2021/08/31 08:58:32;;;;;;;52.60;35.45;;;;;;;15.65;77.45;100520.81;5110285;27;20514;-71
2021/08/31 09:01:07;;;;;;;39.75;25.80;;;;;;;15.76;77.08;100524.66;5109126;27;20764;-72
2021/08/31 09:03:36;;;;;;;44.83;30.35;;;;;;;15.75;77.09;100529.13;5105141;27;20039;-72
2021/08/31 09:06:20;;;;;;;44.15;31.50;;;;;;;15.80;76.74;100531.50;5104461;27;20036;-71
2021/08/31 09:08:57;;;;;;;40.17;29.50;;;;;;;15.84;76.64;100530.38;5105042;27;20039;-72
2021/08/31 09:11:27;;;;;;;43.00;30.33;;;;;;;15.89;76.09;100530.97;5103016;27;20039;-73
2021/08/31 09:14:18;;;;;;;46.42;33.67;;;;;;;15.91;76.24;100525.56;5103036;27;20042;-72
2021/08/31 09:16:46;;;;;;;33.60;26.20;;;;;;;16.00;76.40;100523.22;5104344;27;20119;-73
2021/08/31 09:19:12;;;;;;;43.13;29.65;;;;;;;16.15;74.87;100526.75;5104811;27;20092;-73
2021/08/31 09:21:38;;;;;;;45.20;32.45;;;;;;;16.24;74.38;100533.31;5101791;27;20442;-72
2021/08/31 09:24:04;;;;;;;43.30;32.10;;;;;;;16.31;74.34;100526.66;5110968;27;20074;-73
2021/08/31 09:26:35;;;;;;;35.83;26.92;;;;;;;16.40;73.84;100525.25;5108315;27;20634;-72
2021/08/31 09:29:15;;;;;;;35.20;25.40;;;;;;;16.40;73.52;100523.44;5110271;27;20039;-73
2021/08/31 09:31:49;;;;;;;30.42;22.80;;;;;;;16.50;73.28;100521.06;5105994;27;20073;-71
2021/08/31 09:34:36;;;;;;;35.70;28.33;;;;;;;16.46;73.00;100528.38;5106440;27;20111;-73
2021/08/31 09:37:26;;;;;;;39.83;29.95;;;;;;;16.37;73.11;100523.63;5085930;27;20278;-71
2021/08/31 09:40:08;;;;;;;35.22;29.92;;;;;;;16.33;73.72;100524.75;5086379;28;20037;-71
2021/08/31 09:42:34;;;;;;;46.72;32.85;;;;;;;16.28;74.37;100521.53;5082741;28;20039;-71
2021/08/31 09:45:05;;;;;;;34.83;29.38;;;;;;;16.38;73.97;100528.00;5081939;28;20024;-71
2021/08/31 09:47:35;;;;;;;34.08;28.70;;;;;;;16.47;73.91;100519.44;5083280;28;20065;-71
2021/08/31 09:50:02;;;;;;;31.92;26.17;;;;;;;16.63;74.14;100522.00;5083510;28;20081;-70
2021/08/31 09:52:28;;;;;;;33.80;27.77;;;;;;;16.77;72.31;100518.47;5075130;28;20044;-71
2021/08/31 09:54:55;;;;;;;35.63;26.50;;;;;;;16.84;72.70;100526.97;5063079;28;20505;-71
2021/08/31 09:57:30;;;;;;;36.20;27.75;;;;;;;16.90;73.11;100527.41;5063301;28;20398;-70
2021/08/31 09:59:57;;;;;;;29.33;23.23;;;;;;;16.91;73.13;100528.31;5062854;28;20044;-71
2021/08/31 10:02:23;;;;;;;35.28;29.60;;;;;;;16.89;72.80;100525.72;5059517;28;20497;-72
2021/08/31 10:04:51;;;;;;;40.63;29.70;;;;;;;16.83;72.94;100526.09;5061861;28;20052;-73
2021/08/31 10:07:17;;;;;;;33.15;25.05;;;;;;;16.92;72.91;100527.34;5061653;28;20040;-72
2021/08/31 10:09:43;;;;;;;32.42;26.60;;;;;;;17.12;71.87;100524.22;5062770;28;20024;-72
2021/08/31 10:12:10;;;;;;;34.92;24.77;;;;;;;17.24;72.20;100537.72;5062116;28;20048;-72
2021/08/31 10:14:41;;;;;;;31.20;25.20;;;;;;;17.30;70.63;100543.53;5062364;28;20028;-73
2021/08/31 10:17:08;;;;;;;33.40;26.20;;;;;;;17.29;70.41;100548.94;5062179;28;20032;-71
2021/08/31 10:19:34;;;;;;;31.85;26.08;;;;;;;17.26;70.15;100549.16;5062938;28;20040;-71
2021/08/31 10:21:59;;;;;;;35.42;21.60;;;;;;;17.31;70.24;100553.22;5061185;28;20036;-71
2021/08/31 10:24:26;;;;;;;43.08;25.30;;;;;;;17.41;69.87;100555.28;5061873;28;20561;-71
2021/08/31 10:26:51;;;;;;;29.20;24.02;;;;;;;17.27;69.78;100559.69;5063131;28;20167;-72
2021/08/31 10:29:17;;;;;;;27.10;22.60;;;;;;;17.26;69.79;100550.00;5062969;28;20047;-72
2021/08/31 10:31:44;;;;;;;28.58;23.35;;;;;;;17.17;70.25;100556.75;5062255;28;20382;-71
2021/08/31 10:34:31;;;;;;;25.35;21.48;;;;;;;17.15;70.20;100556.03;5063075;28;20037;-72
2021/08/31 10:37:01;;;;;;;26.17;19.70;;;;;;;17.17;70.04;100550.59;5064755;28;20037;-72
2021/08/31 10:39:48;;;;;;;28.58;24.35;;;;;;;17.05;70.36;100556.69;5063598;28;20102;-72
2021/08/31 10:42:28;;;;;;;28.13;23.35;;;;;;;17.06;70.61;100563.75;5068602;28;20149;-71
2021/08/31 10:44:59;;;;;;;26.48;21.55;;;;;;;17.13;71.19;100557.06;5066810;28;20044;-72
2021/08/31 10:47:28;;;;;;;25.05;20.30;;;;;;;17.23;70.97;100558.19;5067021;28;20053;-72
2021/08/31 10:49:56;;;;;;;26.45;19.20;;;;;;;17.20;70.85;100569.03;5065648;28;20029;-73
2021/08/31 10:52:42;;;;;;;22.58;19.55;;;;;;;17.22;70.34;100569.78;5070003;28;20592;-72
2021/08/31 10:55:27;;;;;;;26.20;21.92;;;;;;;17.19;69.91;100561.16;5086812;28;20043;-72
2021/08/31 10:58:01;;;;;;;27.73;22.30;;;;;;;17.05;70.14;100565.53;5085114;28;20047;-72
2021/08/31 11:00:28;;;;;;;30.13;23.73;;;;;;;16.92;69.69;100562.81;5085006;28;20040;-72
2021/08/31 11:03:00;;;;;;;28.52;22.70;;;;;;;17.00;69.58;100564.13;5080506;28;20032;-72
2021/08/31 11:05:27;;;;;;;30.13;24.17;;;;;;;17.14;68.94;100561.44;5063284;28;20515;-72
2021/08/31 11:08:01;;;;;;;28.45;23.63;;;;;;;17.23;69.13;100554.66;5062381;28;20044;-71
2021/08/31 11:10:28;;;;;;;31.08;24.90;;;;;;;17.27;68.75;100562.34;5061375;28;20067;-71